Time;durP1;ratioP1;P1;durP2;ratioP2;P2;SDS_P1;SDS_P2;PMS_P1;PMS_P2;Temp;Humidity;BMP_temperature;BMP_pressure;BME280_temperature;BME280_humidity;BME280_pressure;Samples;Min_cycle;Max_cycle;Signal;HPM_P1;HPM_P2
2024/04/09 00:00:32;;;;;;;21.02;2.58;;;18.70;99.90;;;;;;5490433;26;20026;-84
2024/04/09 00:02:58;;;;;;;15.13;3.40;;;18.70;99.90;;;;;;5492549;26;20001;-85
2024/04/09 00:05:31;;;;;;;14.85;3.08;;;18.80;99.90;;;;;;5490537;26;20499;-85
2024/04/09 00:07:58;;;;;;;17.67;3.53;;;18.80;99.90;;;;;;5490936;26;20004;-84
2024/04/09 00:10:24;;;;;;;15.50;3.63;;;18.80;99.90;;;;;;5492120;26;20355;-83
2024/04/09 00:12:52;;;;;;;15.48;3.28;;;18.80;99.90;;;;;;5492407;26;19994;-84
2024/04/09 00:15:17;;;;;;;16.67;3.20;;;18.70;99.90;;;;;;5491700;26;19994;-84
2024/04/09 00:17:46;;;;;;;25.98;3.78;;;18.80;99.80;;;;;;5490562;26;20001;-84
2024/04/09 00:20:12;;;;;;;16.45;3.33;;;18.80;99.50;;;;;;5490561;26;19994;-85
2024/04/09 00:22:39;;;;;;;18.52;3.60;;;18.90;99.10;;;;;;5489941;26;19994;-84
2024/04/09 00:25:05;;;;;;;16.55;3.42;;;18.90;99.90;;;;;;5490506;26;20002;-85
2024/04/09 00:27:31;;;;;;;15.25;3.38;;;18.70;99.90;;;;;;5489812;26;19998;-82
2024/04/09 00:29:56;;;;;;;25.60;3.88;;;18.70;99.90;;;;;;5490057;26;20388;-82
2024/04/09 00:32:22;;;;;;;16.35;3.75;;;18.70;99.30;;;;;;5489587;26;20427;-82
2024/04/09 00:34:48;;;;;;;14.27;3.05;;;18.80;98.90;;;;;;5491393;26;19994;-83
2024/04/09 00:37:14;;;;;;;16.80;3.45;;;18.80;98.90;;;;;;5490130;26;20009;-83
2024/04/09 00:39:41;;;;;;;19.40;3.65;;;18.80;99.20;;;;;;5491053;26;20005;-83
2024/04/09 00:42:09;;;;;;;20.10;3.80;;;18.80;99.40;;;;;;5489969;26;19995;-83
2024/04/09 00:44:36;;;;;;;21.08;3.70;;;18.70;99.00;;;;;;5490848;26;19990;-82
2024/04/09 00:47:04;;;;;;;20.33;3.67;;;18.80;98.50;;;;;;5490301;26;20004;-83
2024/04/09 00:49:30;;;;;;;19.65;3.58;;;18.80;98.60;;;;;;5489392;26;20384;-82
2024/04/09 00:51:56;;;;;;;19.90;3.25;;;18.70;98.00;;;;;;5491250;26;20033;-82
2024/04/09 00:54:23;;;;;;;18.30;4.05;;;18.70;97.90;;;;;;5484436;26;19987;-82
2024/04/09 00:56:49;;;;;;;24.08;3.10;;;18.70;97.90;;;;;;5423176;26;20034;-82
2024/04/09 00:59:18;;;;;;;18.35;3.63;;;18.80;98.00;;;;;;5423272;26;19995;-82
2024/04/09 01:01:46;;;;;;;27.73;3.65;;;18.80;97.90;;;;;;5455353;26;19991;-82
2024/04/09 01:04:11;;;;;;;24.65;4.25;;;18.80;98.00;;;;;;5423597;26;19995;-82
2024/04/09 01:06:38;;;;;;;22.85;3.90;;;18.90;98.00;;;;;;5422685;26;20071;-82
2024/04/09 01:09:04;;;;;;;22.48;2.78;;;18.90;98.00;;;;;;5423115;26;20009;-82
2024/04/09 01:11:30;;;;;;;18.77;3.83;;;18.90;98.40;;;;;;5454059;26;19991;-82
2024/04/09 01:13:55;;;;;;;20.67;3.45;;;18.90;98.20;;;;;;5423135;26;19998;-82
2024/04/09 01:16:21;;;;;;;19.83;3.53;;;19.00;98.50;;;;;;5422722;26;19995;-82
2024/04/09 01:18:48;;;;;;;14.30;3.40;;;19.00;98.80;;;;;;5422794;26;19999;-82
2024/04/09 01:21:14;;;;;;;19.15;3.67;;;18.90;99.10;;;;;;5422969;26;20040;-82
2024/04/09 01:23:40;;;;;;;23.33;3.10;;;18.90;99.30;;;;;;5422152;26;19999;-82
2024/04/09 01:26:09;;;;;;;21.45;3.13;;;18.80;99.90;;;;;;5422775;26;20006;-82
2024/04/09 01:28:36;;;;;;;19.48;3.40;;;18.80;99.90;;;;;;5422156;26;19994;-82
2024/04/09 01:31:02;;;;;;;16.90;3.17;;;18.70;99.90;;;;;;5454220;26;20023;-82
2024/04/09 01:33:27;;;;;;;17.13;3.13;;;18.80;99.90;;;;;;5421959;26;20006;-82
2024/04/09 01:35:54;;;;;;;15.68;3.13;;;18.70;99.90;;;;;;5454108;26;19998;-82
2024/04/09 01:38:19;;;;;;;14.80;2.72;;;18.70;99.90;;;;;;5422168;26;19999;-81
2024/04/09 01:40:46;;;;;;;12.40;2.70;;;18.70;99.90;;;;;;5422542;26;20010;-82
2024/04/09 01:43:12;;;;;;;21.17;4.53;;;18.70;99.90;;;;;;5454416;26;19998;-82
2024/04/09 01:45:37;;;;;;;12.57;2.78;;;18.70;99.90;;;;;;5452954;26;20120;-81
2024/04/09 01:48:03;;;;;;;15.38;3.00;;;18.70;99.80;;;;;;5422172;26;19991;-83
2024/04/09 01:50:31;;;;;;;20.58;3.58;;;18.70;99.80;;;;;;5453019;26;19999;-83
2024/04/09 01:52:57;;;;;;;20.63;3.60;;;18.70;99.90;;;;;;5422388;26;20443;-82
2024/04/09 01:55:22;;;;;;;19.42;3.58;;;18.70;99.90;;;;;;5457046;26;20047;-82
2024/04/09 01:57:49;;;;;;;17.95;3.60;;;18.70;99.90;;;;;;5488852;26;20075;-83
2024/04/09 02:00:20;;;;;;;20.35;3.55;;;18.70;99.90;;;;;;5488722;26;19998;-83
2024/04/09 02:02:54;;;;;;;16.38;3.25;;;18.70;99.90;;;;;;5488850;26;19990;-83
2024/04/09 02:05:20;;;;;;;22.10;3.40;;;18.60;99.90;;;;;;5490001;26;20453;-83
2024/04/09 02:07:47;;;;;;;11.80;2.92;;;18.50;99.80;;;;;;5490284;26;20006;-82
2024/04/09 02:10:13;;;;;;;24.88;3.85;;;18.60;99.70;;;;;;5488574;26;20490;-82
2024/04/09 02:12:42;;;;;;;23.80;2.97;;;18.50;99.00;;;;;;5487978;26;20450;-82
2024/04/09 02:15:08;;;;;;;19.52;3.60;;;18.50;98.80;;;;;;5488699;26;19990;-83
2024/04/09 02:17:34;;;;;;;14.15;2.80;;;18.50;98.30;;;;;;5489485;26;20040;-82
2024/04/09 02:19:59;;;;;;;22.02;3.70;;;18.50;98.10;;;;;;5487648;26;19994;-84
2024/04/09 02:22:28;;;;;;;19.98;3.53;;;18.60;98.00;;;;;;5487580;26;20450;-83
2024/04/09 02:24:54;;;;;;;21.20;3.50;;;18.50;97.90;;;;;;5488105;26;19994;-83
2024/04/09 02:27:21;;;;;;;19.35;4.38;;;18.50;97.90;;;;;;5489748;26;20001;-83
2024/04/09 02:29:46;;;;;;;17.83;3.05;;;18.50;98.00;;;;;;5487367;26;20022;-83
2024/04/09 02:32:12;;;;;;;26.42;4.03;;;18.50;98.00;;;;;;5488156;26;20059;-83
2024/04/09 02:34:38;;;;;;;17.08;3.25;;;18.50;98.00;;;;;;5487730;26;20342;-83
2024/04/09 02:37:06;;;;;;;17.73;3.50;;;18.50;98.10;;;;;;5488033;26;19990;-84
2024/04/09 02:39:32;;;;;;;26.30;4.10;;;18.50;98.20;;;;;;5489080;26;19994;-84
2024/04/09 02:42:02;;;;;;;19.58;3.70;;;18.50;98.40;;;;;;5489800;26;20001;-84
2024/04/09 02:44:29;;;;;;;21.38;3.35;;;18.50;98.50;;;;;;5487581;26;20001;-84
2024/04/09 02:46:55;;;;;;;15.23;2.97;;;18.40;98.70;;;;;;5488070;26;19994;-84
2024/04/09 02:49:20;;;;;;;18.90;4.13;;;18.40;98.70;;;;;;5487896;26;19994;-84
2024/04/09 02:51:46;;;;;;;17.75;3.58;;;18.40;99.10;;;;;;5488942;26;20423;-83
2024/04/09 02:54:12;;;;;;;22.40;3.60;;;18.30;99.30;;;;;;5484173;26;20002;-83
2024/04/09 02:56:37;;;;;;;15.75;3.70;;;18.30;99.40;;;;;;5452266;26;20005;-84
2024/04/09 02:59:05;;;;;;;19.80;2.97;;;18.30;99.50;;;;;;5423891;26;20353;-84
2024/04/09 03:01:31;;;;;;;20.55;3.22;;;18.30;99.70;;;;;;5424750;26;20003;-84
2024/04/09 03:03:57;;;;;;;16.77;3.63;;;18.30;99.90;;;;;;5425221;26;19999;-83
2024/04/09 03:06:22;;;;;;;18.10;3.17;;;18.30;99.90;;;;;;5425067;26;19994;-83
2024/04/09 03:08:48;;;;;;;16.88;3.97;;;18.30;99.90;;;;;;5455987;26;19998;-83
2024/04/09 03:11:16;;;;;;;17.35;3.20;;;18.30;99.90;;;;;;5424921;26;20401;-83
2024/04/09 03:13:42;;;;;;;14.98;3.17;;;18.20;99.90;;;;;;5455897;26;20003;-83
2024/04/09 03:16:19;;;;;;;16.77;3.65;;;18.20;99.90;;;;;;5424438;26;19995;-83
2024/04/09 03:18:46;;;;;;;17.58;3.30;;;18.20;99.90;;;;;;5455875;26;20394;-83
2024/04/09 03:21:12;;;;;;;16.10;3.13;;;18.20;99.90;;;;;;5456233;26;20035;-83
2024/04/09 03:23:39;;;;;;;20.30;3.15;;;18.20;99.90;;;;;;5424036;26;20005;-83
2024/04/09 03:26:06;;;;;;;14.43;2.97;;;18.20;99.90;;;;;;5424789;26;20431;-83
2024/04/09 03:28:32;;;;;;;20.00;3.13;;;18.20;99.90;;;;;;5423758;26;20010;-83
2024/04/09 03:30:59;;;;;;;20.00;2.55;;;18.20;99.90;;;;;;5456236;26;20463;-83
2024/04/09 03:33:26;;;;;;;17.42;2.45;;;18.20;99.90;;;;;;5455845;26;19998;-83
2024/04/09 03:36:03;;;;;;;15.07;2.60;;;18.20;99.80;;;;;;5424398;26;20492;-83
2024/04/09 03:38:28;;;;;;;15.00;2.42;;;18.30;99.20;;;;;;5455233;26;19987;-83
2024/04/09 03:41:01;;;;;;;13.10;2.60;;;18.30;98.70;;;;;;5456222;26;19995;-84
2024/04/09 03:43:27;;;;;;;14.38;2.55;;;18.30;98.20;;;;;;5423999;26;20003;-83
2024/04/09 03:46:13;;;;;;;11.45;1.85;;;18.40;97.90;;;;;;5424860;26;20436;-83
2024/04/09 03:48:43;;;;;;;10.45;2.20;;;18.40;97.50;;;;;;5455463;26;20006;-83
2024/04/09 03:51:13;;;;;;;13.10;2.08;;;18.40;97.10;;;;;;5456176;26;19995;-84
2024/04/09 03:53:39;;;;;;;8.77;2.03;;;18.50;96.80;;;;;;5455903;26;19990;-85
2024/04/09 03:56:09;;;;;;;11.73;2.03;;;18.50;96.60;;;;;;5481297;26;20001;-85
2024/04/09 03:58:39;;;;;;;9.52;2.15;;;18.50;96.30;;;;;;5492148;26;19994;-84
2024/04/09 04:01:06;;;;;;;13.88;2.33;;;18.50;96.00;;;;;;5492583;26;19998;-85
2024/04/09 04:03:32;;;;;;;24.85;3.45;;;18.60;95.80;;;;;;5490165;26;19994;-85
2024/04/09 04:06:00;;;;;;;14.90;2.03;;;18.60;95.50;;;;;;5492450;26;19993;-84
2024/04/09 04:08:29;;;;;;;16.30;1.65;;;18.60;95.10;;;;;;5490476;26;20001;-85
2024/04/09 04:11:00;;;;;;;7.28;1.52;;;18.60;94.80;;;;;;5491487;26;20058;-84
2024/04/09 04:13:29;;;;;;;8.18;1.90;;;18.60;94.60;;;;;;5491907;26;19994;-84
2024/04/09 04:16:09;;;;;;;14.88;1.88;;;18.60;94.50;;;;;;5491827;26;20009;-83
2024/04/09 04:18:37;;;;;;;6.57;1.40;;;18.60;94.30;;;;;;5491251;26;19994;-83
2024/04/09 04:21:04;;;;;;;11.35;1.60;;;18.60;94.30;;;;;;5490172;26;19998;-83
2024/04/09 04:23:30;;;;;;;5.57;1.30;;;18.70;94.10;;;;;;5490985;26;20100;-85
2024/04/09 04:26:04;;;;;;;11.25;1.88;;;18.60;94.00;;;;;;5490377;26;20006;-85
2024/04/09 04:28:30;;;;;;;5.57;1.42;;;18.60;94.10;;;;;;5491370;26;20016;-84
2024/04/09 04:30:56;;;;;;;8.93;1.27;;;18.60;94.10;;;;;;5491704;26;19994;-83
2024/04/09 04:33:22;;;;;;;8.25;1.20;;;18.60;94.20;;;;;;5489857;26;20001;-82
2024/04/09 04:35:48;;;;;;;12.05;2.03;;;18.60;94.10;;;;;;5489368;26;20074;-82
2024/04/09 04:38:13;;;;;;;4.03;0.90;;;18.60;94.40;;;;;;5490908;26;20443;-83
2024/04/09 04:40:39;;;;;;;4.88;0.88;;;18.60;94.30;;;;;;5489537;26;20002;-84
2024/04/09 04:43:05;;;;;;;8.57;0.77;;;18.60;94.30;;;;;;5490798;26;19998;-86
2024/04/09 04:45:31;;;;;;;6.93;0.90;;;18.60;94.30;;;;;;5491174;26;20005;-83
2024/04/09 04:47:58;;;;;;;9.20;1.45;;;18.50;94.60;;;;;;5490549;26;20001;-84
2024/04/09 04:50:24;;;;;;;5.70;1.17;;;18.50;94.70;;;;;;5490583;26;20061;-85
2024/04/09 04:52:49;;;;;;;3.78;0.90;;;18.50;94.90;;;;;;5491603;26;20002;-84
2024/04/09 04:55:15;;;;;;;3.53;1.13;;;18.40;95.20;;;;;;5490003;26;19994;-84
2024/04/09 04:57:41;;;;;;;12.38;0.90;;;18.30;95.40;;;;;;5490255;26;20067;-85
2024/04/09 05:00:09;;;;;;;5.95;0.73;;;18.30;95.80;;;;;;5490323;26;19998;-82
2024/04/09 05:02:38;;;;;;;5.65;0.70;;;18.20;96.00;;;;;;5491492;26;20381;-83
2024/04/09 05:05:07;;;;;;;5.03;0.93;;;18.20;96.10;;;;;;5490463;26;19994;-80
2024/04/09 05:07:34;;;;;;;7.68;0.80;;;18.20;96.30;;;;;;5491790;26;19990;-83
2024/04/09 05:10:00;;;;;;;4.63;0.80;;;18.20;96.70;;;;;;5491772;26;20082;-83
2024/04/09 05:12:26;;;;;;;7.68;0.88;;;18.10;96.80;;;;;;5491694;26;19994;-83
2024/04/09 05:14:52;;;;;;;5.75;1.30;;;18.10;97.00;;;;;;5490950;26;20672;-82
2024/04/09 05:17:17;;;;;;;5.22;0.82;;;18.10;97.30;;;;;;5490713;26;20499;-84
2024/04/09 05:19:43;;;;;;;2.60;0.65;;;18.00;97.50;;;;;;5490207;26;20002;-83
2024/04/09 05:22:11;;;;;;;4.53;0.80;;;18.00;97.60;;;;;;5488393;26;20014;-83
2024/04/09 05:24:39;;;;;;;6.47;0.63;;;18.00;97.80;;;;;;5490600;26;20070;-87
2024/04/09 05:27:05;;;;;;;4.20;1.02;;;18.00;97.90;;;;;;5489296;26;19998;-84
2024/04/09 05:29:31;;;;;;;7.80;0.75;;;18.00;98.00;;;;;;5489272;26;20077;-83
2024/04/09 05:31:57;;;;;;;7.05;1.40;;;17.90;98.30;;;;;;5488316;26;20384;-83
2024/04/09 05:34:22;;;;;;;4.03;0.80;;;17.90;98.40;;;;;;5489508;26;19998;-87
2024/04/09 05:36:48;;;;;;;6.38;0.60;;;17.90;98.50;;;;;;5488638;26;20009;-82
2024/04/09 05:39:14;;;;;;;4.38;0.98;;;17.90;98.60;;;;;;5488884;26;19998;-82
2024/04/09 05:41:40;;;;;;;4.20;1.13;;;17.90;98.80;;;;;;5489815;26;20004;-83
2024/04/09 05:44:05;;;;;;;9.07;0.88;;;17.90;98.90;;;;;;5483023;26;20467;-84
2024/04/09 05:46:31;;;;;;;5.03;0.73;;;17.90;99.20;;;;;;5484770;26;20002;-85
2024/04/09 05:48:57;;;;;;;5.10;0.88;;;17.80;99.30;;;;;;5488141;26;19994;-85
2024/04/09 05:51:22;;;;;;;4.90;0.80;;;17.80;99.50;;;;;;5489035;26;20098;-85
2024/04/09 05:53:49;;;;;;;3.85;0.65;;;17.90;99.50;;;;;;5488655;26;20035;-85
2024/04/09 05:56:14;;;;;;;2.25;0.65;;;17.90;99.50;;;;;;5488599;26;20000;-84
2024/04/09 05:58:40;;;;;;;2.97;0.80;;;17.80;99.70;;;;;;5490309;26;19990;-84
2024/04/09 06:01:09;;;;;;;6.15;0.80;;;17.80;99.80;;;;;;5488722;26;20334;-84
2024/04/09 06:03:35;;;;;;;2.97;0.82;;;17.90;99.90;;;;;;5488882;26;19991;-84
2024/04/09 06:06:00;;;;;;;4.82;0.60;;;17.80;99.70;;;;;;5490820;26;20004;-85
2024/04/09 06:08:26;;;;;;;4.25;0.50;;;17.80;99.60;;;;;;5490381;26;19997;-85
2024/04/09 06:10:52;;;;;;;6.32;0.85;;;17.70;99.60;;;;;;5488393;26;20375;-84
2024/04/09 06:13:18;;;;;;;3.97;0.98;;;17.70;99.80;;;;;;5490632;26;19994;-85
2024/04/09 06:15:44;;;;;;;3.72;0.80;;;17.60;99.80;;;;;;5488281;26;20002;-84
2024/04/09 06:18:10;;;;;;;2.60;0.50;;;17.50;99.90;;;;;;5488763;26;19990;-85
2024/04/09 06:20:36;;;;;;;2.72;0.60;;;17.40;99.90;;;;;;5488703;26;19994;-85
2024/04/09 06:23:02;;;;;;;4.57;0.50;;;17.40;99.90;;;;;;5488901;26;20487;-85
2024/04/09 06:25:28;;;;;;;0.22;0.13;;;17.20;99.90;;;;;;5490374;26;20002;-85
2024/04/09 06:27:53;;;;;;;2.95;0.77;;;17.20;99.90;;;;;;5488144;26;20006;-85
2024/04/09 06:30:19;;;;;;;2.10;0.40;;;17.20;99.90;;;;;;5488923;26;19994;-84
2024/04/09 06:32:45;;;;;;;6.35;0.47;;;17.30;99.90;;;;;;5489395;26;20030;-84
2024/04/09 06:35:11;;;;;;;3.58;0.40;;;17.30;99.90;;;;;;5491826;26;19990;-84
2024/04/09 06:37:38;;;;;;;1.73;0.20;;;17.30;99.90;;;;;;5493506;26;20002;-82
2024/04/09 06:40:07;;;;;;;3.65;0.73;;;17.20;99.90;;;;;;5493828;26;20319;-85
2024/04/09 06:42:32;;;;;;;3.50;0.40;;;17.10;99.90;;;;;;5493754;26;20026;-85
2024/04/09 06:44:58;;;;;;;2.88;0.55;;;17.10;99.90;;;;;;5493095;26;20009;-85
2024/04/09 06:47:24;;;;;;;1.45;0.22;;;17.10;99.90;;;;;;5493543;26;19994;-85
2024/04/09 06:49:49;;;;;;;3.05;0.98;;;17.00;99.90;;;;;;5491370;26;20442;-85
2024/04/09 06:52:16;;;;;;;0.85;0.20;;;16.80;99.90;;;;;;5491895;26;19994;-85
2024/04/09 06:54:41;;;;;;;3.58;0.20;;;16.70;99.90;;;;;;5490942;26;20312;-85
2024/04/09 06:57:08;;;;;;;1.25;0.20;;;16.70;99.70;;;;;;5493429;26;19994;-85
2024/04/09 06:59:34;;;;;;;2.38;0.30;;;16.50;99.50;;;;;;5493243;26;20009;-85
2024/04/09 07:01:59;;;;;;;0.40;0.20;;;16.50;99.40;;;;;;5492977;26;19994;-85
2024/04/09 07:04:25;;;;;;;5.28;0.40;;;16.50;99.40;;;;;;5491748;26;19994;-85
2024/04/09 07:06:52;;;;;;;0.50;0.10;;;16.40;98.20;;;;;;5491170;26;20044;-85
2024/04/09 07:09:18;;;;;;;4.68;0.20;;;16.30;97.60;;;;;;5491684;26;19994;-85
2024/04/09 07:11:45;;;;;;;0.95;0.10;;;16.10;97.10;;;;;;5491163;26;19998;-85
2024/04/09 07:14:13;;;;;;;1.45;0.10;;;16.00;96.90;;;;;;5491783;26;20320;-85
2024/04/09 07:16:48;;;;;;;0.15;0.00;;;15.90;96.60;;;;;;5491471;26;19994;-85
2024/04/09 07:19:14;;;;;;;1.20;0.08;;;15.80;96.70;;;;;;5493189;26;20415;-84
2024/04/09 07:21:39;;;;;;;0.15;0.05;;;15.70;96.60;;;;;;5492752;26;20476;-81
2024/04/09 07:24:06;;;;;;;0.95;0.00;;;15.50;96.80;;;;;;5492977;26;19994;-85
2024/04/09 07:26:32;;;;;;;0.10;0.10;;;15.40;97.20;;;;;;5491251;26;19994;-84
2024/04/09 07:28:58;;;;;;;2.63;0.32;;;15.30;97.50;;;;;;5492385;26;20023;-84
2024/04/09 07:31:23;;;;;;;0.90;0.10;;;15.30;97.60;;;;;;5492912;26;19990;-84
2024/04/09 07:33:49;;;;;;;2.40;0.20;;;15.20;98.00;;;;;;5492436;26;19998;-84
2024/04/09 07:36:15;;;;;;;1.63;0.17;;;15.10;98.10;;;;;;5491353;26;19997;-85
2024/04/09 07:38:41;;;;;;;1.65;0.10;;;15.20;98.20;;;;;;5490840;26;19994;-82
2024/04/09 07:41:07;;;;;;;1.83;0.10;;;15.10;98.20;;;;;;5491637;26;20013;-84
2024/04/09 07:43:32;;;;;;;0.20;0.13;;;15.20;98.50;;;;;;5492457;26;20005;-85
2024/04/09 07:45:59;;;;;;;0.75;0.20;;;15.20;98.60;;;;;;5490235;26;20051;-83
2024/04/09 07:48:25;;;;;;;1.77;0.20;;;15.10;98.60;;;;;;5493020;26;20426;-85
2024/04/09 07:50:54;;;;;;;0.38;0.10;;;15.00;98.90;;;;;;5492202;26;20096;-85
2024/04/09 07:53:20;;;;;;;2.72;0.20;;;14.90;98.60;;;;;;5492868;26;20001;-85
2024/04/09 07:55:47;;;;;;;0.88;0.25;;;14.90;98.70;;;;;;5490608;26;19998;-84
2024/04/09 07:58:13;;;;;;;1.67;0.10;;;14.80;98.00;;;;;;5491667;26;20039;-85
2024/04/09 08:00:39;;;;;;;4.03;0.20;;;14.70;97.50;;;;;;5491412;26;19994;-85
2024/04/09 08:03:05;;;;;;;1.88;0.15;;;14.60;97.30;;;;;;5490451;26;19994;-84
2024/04/09 08:05:31;;;;;;;2.15;0.30;;;14.60;97.20;;;;;;5490740;26;20327;-85
2024/04/09 08:07:56;;;;;;;0.32;0.10;;;14.70;96.60;;;;;;5492150;26;20004;-84
2024/04/09 08:10:22;;;;;;;2.38;0.10;;;14.60;96.80;;;;;;5492832;26;19991;-85
2024/04/09 08:12:54;;;;;;;1.02;0.22;;;14.60;96.10;;;;;;5490485;26;20447;-84
2024/04/09 08:15:23;;;;;;;1.38;0.20;;;14.50;96.10;;;;;;5492498;26;20005;-84
2024/04/09 08:17:50;;;;;;;0.55;0.00;;;14.40;95.30;;;;;;5491986;26;19994;-84
2024/04/09 08:20:16;;;;;;;0.38;0.10;;;14.40;95.30;;;;;;5492417;26;20009;-85
2024/04/09 08:22:43;;;;;;;1.25;0.20;;;14.40;95.90;;;;;;5490862;26;20005;-83
2024/04/09 08:25:09;;;;;;;2.95;0.20;;;14.30;96.00;;;;;;5491955;26;20415;-84
2024/04/09 08:27:40;;;;;;;1.65;0.15;;;14.30;95.50;;;;;;5491042;26;20002;-84
2024/04/09 08:30:14;;;;;;;0.30;0.13;;;14.20;95.60;;;;;;5491283;26;20005;-84
2024/04/09 08:32:41;;;;;;;1.65;0.10;;;14.20;95.40;;;;;;5492084;26;20001;-83
2024/04/09 08:35:07;;;;;;;1.65;0.10;;;14.20;95.90;;;;;;5490214;26;20006;-84
2024/04/09 08:37:33;;;;;;;0.55;0.03;;;14.10;96.30;;;;;;5491786;26;19994;-84
2024/04/09 08:39:59;;;;;;;1.35;0.10;;;14.20;96.10;;;;;;5489693;26;19994;-84
2024/04/09 08:42:28;;;;;;;1.20;0.25;;;14.20;95.70;;;;;;5489994;26;20446;-83
2024/04/09 08:44:58;;;;;;;0.40;0.15;;;14.20;95.30;;;;;;5491302;26;20009;-83
2024/04/09 08:47:24;;;;;;;5.80;0.30;;;14.20;95.30;;;;;;5490302;26;19990;-84
2024/04/09 08:49:53;;;;;;;1.48;0.20;;;14.10;95.20;;;;;;5491315;26;20005;-85
2024/04/09 08:52:20;;;;;;;3.38;0.25;;;14.00;95.80;;;;;;5490165;26;19990;-84
2024/04/09 08:54:45;;;;;;;2.88;0.17;;;14.00;96.00;;;;;;5489615;26;20480;-82
2024/04/09 08:57:11;;;;;;;5.68;0.30;;;13.80;96.30;;;;;;5490369;26;20009;-85
2024/04/09 08:59:37;;;;;;;2.28;0.30;;;13.80;96.60;;;;;;5490634;26;20022;-85
2024/04/09 09:02:07;;;;;;;5.68;0.60;;;13.80;96.80;;;;;;5489900;26;19994;-85
2024/04/09 09:04:36;;;;;;;2.53;0.43;;;13.60;96.50;;;;;;5492308;26;20364;-85
2024/04/09 09:07:06;;;;;;;6.30;0.30;;;13.50;96.90;;;;;;5489721;26;20008;-85
2024/04/09 09:09:31;;;;;;;6.70;0.40;;;13.40;97.10;;;;;;5490286;26;20466;-85
2024/04/09 09:12:04;;;;;;;3.63;0.30;;;13.20;97.20;;;;;;5489416;26;19994;-84
2024/04/09 09:14:30;;;;;;;2.45;0.30;;;13.20;97.60;;;;;;5490106;26;19994;-85
2024/04/09 09:17:02;;;;;;;3.70;0.60;;;13.30;97.50;;;;;;5491322;26;20001;-85
2024/04/09 09:19:31;;;;;;;2.78;0.20;;;13.40;97.50;;;;;;5489811;26;20354;-86
2024/04/09 09:22:02;;;;;;;2.08;0.20;;;13.30;97.50;;;;;;5489802;26;20002;-85
2024/04/09 09:24:31;;;;;;;0.47;0.10;;;13.40;97.60;;;;;;5490058;26;19986;-84
2024/04/09 09:27:13;;;;;;;1.42;0.30;;;13.40;97.20;;;;;;5489076;26;20030;-83
2024/04/09 09:29:38;;;;;;;3.67;0.50;;;13.50;97.10;;;;;;5489783;26;20005;-84
2024/04/09 09:32:05;;;;;;;2.33;0.70;;;13.50;97.30;;;;;;5490640;26;20004;-83
2024/04/09 09:34:40;;;;;;;2.15;0.30;;;13.40;97.20;;;;;;5491614;26;20048;-83
2024/04/09 09:37:10;;;;;;;1.00;0.30;;;13.40;97.40;;;;;;5491070;26;19990;-83
2024/04/09 09:39:39;;;;;;;0.95;0.20;;;13.30;96.90;;;;;;5489563;26;19994;-84
2024/04/09 09:42:15;;;;;;;3.35;0.30;;;13.20;96.40;;;;;;5489171;26;20426;-84
2024/04/09 09:44:42;;;;;;;1.67;0.32;;;13.20;96.50;;;;;;5489412;26;19994;-84
2024/04/09 09:47:08;;;;;;;2.83;0.30;;;13.00;97.00;;;;;;5489195;26;20297;-84
2024/04/09 09:49:35;;;;;;;1.40;0.17;;;12.90;96.80;;;;;;5491189;26;20091;-84
2024/04/09 09:52:02;;;;;;;1.00;0.22;;;12.90;96.90;;;;;;5488740;26;20010;-85
2024/04/09 09:54:28;;;;;;;0.75;0.25;;;12.70;96.80;;;;;;5489234;26;19993;-84
2024/04/09 09:57:02;;;;;;;3.00;0.20;;;12.60;97.00;;;;;;5489015;26;20070;-84
2024/04/09 09:59:54;;;;;;;2.25;0.30;;;12.50;96.90;;;;;;5491539;26;20062;-84
2024/04/09 10:02:20;;;;;;;1.23;0.20;;;12.40;97.40;;;;;;5491594;26;20009;-84
2024/04/09 10:04:48;;;;;;;2.25;0.20;;;12.30;97.90;;;;;;5489836;26;19997;-84
2024/04/09 10:07:16;;;;;;;1.20;0.30;;;12.10;98.10;;;;;;5487996;26;20009;-83
2024/04/09 10:09:49;;;;;;;2.33;0.40;;;12.10;98.60;;;;;;5489452;26;19990;-84
2024/04/09 10:12:24;;;;;;;1.58;0.30;;;12.10;98.90;;;;;;5489730;26;20009;-84
2024/04/09 10:14:58;;;;;;;2.05;0.30;;;12.00;98.60;;;;;;5489236;26;20030;-82
2024/04/09 10:17:31;;;;;;;1.75;0.13;;;12.00;98.80;;;;;;5489753;26;20311;-84
2024/04/09 10:19:56;;;;;;;0.98;0.30;;;12.00;99.00;;;;;;5489198;26;19994;-83
2024/04/09 10:22:22;;;;;;;1.95;0.28;;;11.90;99.10;;;;;;5489001;26;20005;-83
2024/04/09 10:24:51;;;;;;;4.22;0.30;;;12.00;99.20;;;;;;5489554;26;20005;-83
2024/04/09 10:27:21;;;;;;;4.18;0.50;;;12.00;99.30;;;;;;5489743;26;20004;-83
2024/04/09 10:29:53;;;;;;;1.83;0.20;;;12.00;99.40;;;;;;5489726;26;20020;-81
2024/04/09 10:32:24;;;;;;;1.38;0.50;;;11.90;99.50;;;;;;5495123;26;20304;-83
2024/04/09 10:34:50;;;;;;;1.80;0.30;;;11.90;99.40;;;;;;5497249;26;19994;-84
2024/04/09 10:37:17;;;;;;;1.30;0.20;;;11.80;99.50;;;;;;5496265;26;19991;-84
2024/04/09 10:39:43;;;;;;;0.57;0.20;;;11.90;99.50;;;;;;5495909;26;20047;-84
2024/04/09 10:42:08;;;;;;;0.47;0.20;;;11.90;99.40;;;;;;5491933;26;19991;-83
2024/04/09 10:44:34;;;;;;;1.00;0.28;;;11.80;99.50;;;;;;5490472;26;20435;-86
2024/04/09 10:46:59;;;;;;;0.88;0.30;;;11.80;99.60;;;;;;5490250;26;20002;-84
2024/04/09 10:49:25;;;;;;;2.25;0.22;;;11.90;99.60;;;;;;5494464;26;20009;-84
2024/04/09 10:51:52;;;;;;;1.42;0.30;;;11.80;99.80;;;;;;5498790;26;20004;-84
2024/04/09 10:54:19;;;;;;;1.60;0.40;;;11.80;99.80;;;;;;5491531;26;20009;-84
2024/04/09 10:56:45;;;;;;;1.75;0.30;;;11.80;99.50;;;;;;5424488;26;19991;-84
2024/04/09 10:59:22;;;;;;;2.35;0.30;;;11.70;99.60;;;;;;5453838;26;20005;-84
2024/04/09 11:01:47;;;;;;;1.65;0.32;;;11.60;99.60;;;;;;5454913;26;20039;-83
2024/04/09 11:04:13;;;;;;;1.25;0.25;;;11.60;99.80;;;;;;5432206;26;20343;-84
2024/04/09 11:06:42;;;;;;;0.75;0.30;;;11.60;99.80;;;;;;5436125;26;20019;-84
2024/04/09 11:09:08;;;;;;;3.75;0.30;;;11.60;99.90;;;;;;5436341;26;19995;-84
2024/04/09 11:11:40;;;;;;;1.15;0.30;;;11.70;99.90;;;;;;5433849;26;20062;-84
2024/04/09 11:14:07;;;;;;;0.85;0.28;;;11.60;99.90;;;;;;5434361;26;20003;-84
2024/04/09 11:16:33;;;;;;;1.65;0.20;;;11.60;99.90;;;;;;5465680;26;20072;-84
2024/04/09 11:19:00;;;;;;;2.78;0.30;;;11.50;99.90;;;;;;5431931;26;19999;-84
2024/04/09 11:21:30;;;;;;;1.65;0.40;;;11.40;99.90;;;;;;5438291;26;20010;-83
2024/04/09 11:23:56;;;;;;;2.90;0.40;;;11.50;99.90;;;;;;5435607;26;19991;-83
2024/04/09 11:26:22;;;;;;;1.08;0.20;;;11.60;99.90;;;;;;5432200;26;19995;-84
2024/04/09 11:28:52;;;;;;;2.10;0.30;;;11.50;99.90;;;;;;5426034;26;19991;-84
2024/04/09 11:31:25;;;;;;;3.17;0.60;;;11.60;99.90;;;;;;5456345;26;20063;-84
2024/04/09 11:33:50;;;;;;;2.95;0.55;;;11.50;99.90;;;;;;5425056;26;20002;-84
2024/04/09 11:36:16;;;;;;;2.22;0.35;;;11.50;99.90;;;;;;5424779;26;19999;-84
2024/04/09 11:38:42;;;;;;;3.17;0.50;;;11.50;99.90;;;;;;5425263;26;19991;-84
2024/04/09 11:41:08;;;;;;;2.60;0.40;;;11.50;99.90;;;;;;5424557;26;20003;-84
2024/04/09 11:43:34;;;;;;;1.30;0.40;;;11.40;99.90;;;;;;5424752;26;20064;-84
2024/04/09 11:46:01;;;;;;;2.40;0.28;;;11.40;99.90;;;;;;5455828;26;19995;-83
2024/04/09 11:48:27;;;;;;;3.50;0.30;;;11.40;99.90;;;;;;5424660;26;19994;-84
2024/04/09 11:50:52;;;;;;;1.40;0.28;;;11.40;99.90;;;;;;5456302;26;19999;-84
2024/04/09 11:53:18;;;;;;;0.70;0.20;;;11.50;99.90;;;;;;5455506;26;19991;-84
2024/04/09 11:55:44;;;;;;;2.33;0.32;;;11.40;99.90;;;;;;5455839;26;19995;-83
2024/04/09 11:58:10;;;;;;;2.08;0.20;;;11.40;99.90;;;;;;5455633;26;19990;-84
2024/04/09 12:00:36;;;;;;;2.60;0.20;;;11.40;99.90;;;;;;5424424;26;20006;-84
2024/04/09 12:03:02;;;;;;;0.70;0.25;;;11.50;99.90;;;;;;5455476;26;19991;-82
2024/04/09 12:05:28;;;;;;;0.82;0.38;;;11.50;99.90;;;;;;5455878;26;20031;-83
2024/04/09 12:07:54;;;;;;;1.02;0.40;;;11.60;99.90;;;;;;5424376;26;20084;-82
2024/04/09 12:10:22;;;;;;;0.75;0.30;;;11.50;99.90;;;;;;5423775;26;19995;-82
2024/04/09 12:12:48;;;;;;;3.03;0.38;;;11.60;99.90;;;;;;5424088;26;19991;-83
2024/04/09 12:15:13;;;;;;;0.65;0.20;;;11.60;99.90;;;;;;5423493;26;20006;-82
2024/04/09 12:17:41;;;;;;;0.95;0.25;;;11.60;99.90;;;;;;5455939;26;20002;-82
2024/04/09 12:20:07;;;;;;;2.95;0.30;;;11.60;99.90;;;;;;5455185;26;20009;-83
2024/04/09 12:22:34;;;;;;;1.15;0.25;;;11.60;99.90;;;;;;5424175;26;20001;-83
2024/04/09 12:25:00;;;;;;;1.85;0.30;;;11.60;99.90;;;;;;5423631;26;19995;-83
2024/04/09 12:27:25;;;;;;;1.08;0.20;;;11.60;99.90;;;;;;5456054;26;19995;-82
2024/04/09 12:29:52;;;;;;;1.15;0.20;;;11.70;99.90;;;;;;5423729;26;20002;-82
2024/04/09 12:32:18;;;;;;;1.30;0.22;;;11.60;99.90;;;;;;5423474;26;20338;-82
2024/04/09 12:34:44;;;;;;;0.68;0.35;;;11.60;99.90;;;;;;5423790;26;19994;-82
2024/04/09 12:37:10;;;;;;;1.38;0.45;;;11.60;99.90;;;;;;5423119;26;19995;-83
2024/04/09 12:39:37;;;;;;;0.73;0.20;;;11.60;99.90;;;;;;5423849;26;19995;-82
2024/04/09 12:42:02;;;;;;;1.77;0.20;;;11.70;99.90;;;;;;5454537;26;20095;-82